createdAt,value
2022-08-25T00:01:24.415Z,4.53
2022-08-25T00:06:29.543Z,4.82
2022-08-25T00:08:59.991Z,4.80
2022-08-25T00:11:30.475Z,5.80
2022-08-25T00:14:01.333Z,5.15
2022-08-25T00:16:31.522Z,4.93
2022-08-25T00:19:01.882Z,4.85
2022-08-25T00:21:31.607Z,4.70
2022-08-25T00:24:03.295Z,6.05
2022-08-25T00:26:31.314Z,5.28
2022-08-25T00:29:01.619Z,5.55
2022-08-25T00:31:38.157Z,5.40
2022-08-25T00:34:08.486Z,5.40
2022-08-25T00:36:36.607Z,4.25
2022-08-25T00:39:07.070Z,5.57
2022-08-25T00:41:36.121Z,5.20
2022-08-25T00:44:07.683Z,4.88
2022-08-25T00:46:38.768Z,5.10
2022-08-25T00:49:20.856Z,4.57
2022-08-25T00:51:58.872Z,5.22
2022-08-25T00:54:31.390Z,5.00
2022-08-25T00:57:01.157Z,4.95
2022-08-25T00:59:29.527Z,5.22
2022-08-25T01:01:59.076Z,5.00
2022-08-25T01:04:28.179Z,4.68
2022-08-25T01:06:57.828Z,5.38
2022-08-25T01:09:27.581Z,4.80
2022-08-25T01:11:55.982Z,6.18
2022-08-25T01:14:26.472Z,5.95
2022-08-25T01:16:54.609Z,4.97
2022-08-25T01:19:23.470Z,4.63
2022-08-25T01:21:54.535Z,5.60
2022-08-25T01:24:27.185Z,5.28
2022-08-25T01:26:55.218Z,6.65
2022-08-25T01:29:25.415Z,6.35
2022-08-25T01:31:57.757Z,5.28
2022-08-25T01:34:27.575Z,5.70
2022-08-25T01:36:58.149Z,5.88
2022-08-25T01:39:27.542Z,5.72
2022-08-25T01:42:05.515Z,5.90
2022-08-25T01:44:36.175Z,6.38
2022-08-25T01:47:06.195Z,5.28
2022-08-25T01:49:34.260Z,4.65
2022-08-25T01:52:07.988Z,6.28
2022-08-25T01:54:35.930Z,5.80
2022-08-25T01:57:04.094Z,5.72
2022-08-25T01:59:32.105Z,6.07
2022-08-25T02:02:00.384Z,5.93
2022-08-25T02:04:32.133Z,5.93
2022-08-25T02:07:00.661Z,5.65
2022-08-25T02:09:30.825Z,6.47
2022-08-25T02:11:59.309Z,5.85
2022-08-25T02:14:28.617Z,5.85
2022-08-25T02:16:57.218Z,5.65
2022-08-25T02:19:26.987Z,6.20
2022-08-25T02:21:55.875Z,5.93
2022-08-25T02:24:23.992Z,6.25
2022-08-25T02:26:53.603Z,5.82
2022-08-25T02:29:21.595Z,6.47
2022-08-25T02:31:49.612Z,6.30
2022-08-25T02:34:18.078Z,6.70
2022-08-25T02:36:46.239Z,6.45
2022-08-25T02:39:14.287Z,6.75
2022-08-25T02:41:42.441Z,5.82
2022-08-25T02:44:11.763Z,6.22
2022-08-25T02:46:40.188Z,6.35
2022-08-25T02:49:09.003Z,6.93
2022-08-25T02:51:37.593Z,5.78
2022-08-25T02:54:07.163Z,5.00
2022-08-25T02:56:35.324Z,6.55
2022-08-25T02:59:03.675Z,5.43
2022-08-25T03:01:33.858Z,5.95
2022-08-25T03:04:02.861Z,5.80
2022-08-25T03:06:31.651Z,5.93
2022-08-25T03:08:59.883Z,6.13
2022-08-25T03:11:28.138Z,6.65
2022-08-25T03:13:56.870Z,5.70
2022-08-25T03:16:27.701Z,6.63
2022-08-25T03:18:57.838Z,7.30
2022-08-25T03:21:25.967Z,6.80
2022-08-25T03:23:54.257Z,6.03
2022-08-25T03:26:39.860Z,7.05
2022-08-25T03:29:08.050Z,6.30
2022-08-25T03:31:36.745Z,6.30
2022-08-25T03:34:06.706Z,6.30
2022-08-25T03:36:34.735Z,7.35
2022-08-25T03:39:02.719Z,6.65
2022-08-25T03:41:32.737Z,6.45
2022-08-25T03:44:01.672Z,5.88
2022-08-25T03:46:31.554Z,6.45
2022-08-25T03:49:01.125Z,6.18
2022-08-25T03:51:33.388Z,6.95
2022-08-25T03:54:02.579Z,6.47
2022-08-25T03:56:30.623Z,7.20
2022-08-25T03:58:58.735Z,6.38
2022-08-25T04:01:27.109Z,7.50
2022-08-25T04:03:55.180Z,7.40
2022-08-25T04:06:23.746Z,6.78
2022-08-25T04:08:53.599Z,7.20
2022-08-25T04:11:23.975Z,6.68
2022-08-25T04:13:53.138Z,6.75
2022-08-25T04:16:23.007Z,6.10
2022-08-25T04:18:52.323Z,7.55
2022-08-25T04:21:21.364Z,6.28
2022-08-25T04:23:50.663Z,5.97
2022-08-25T04:26:23.041Z,7.57
2022-08-25T04:28:51.293Z,6.65
2022-08-25T04:31:22.759Z,6.53
2022-08-25T04:33:51.761Z,7.45
2022-08-25T04:36:20.468Z,7.65
2022-08-25T04:38:50.054Z,6.88
2022-08-25T04:41:21.941Z,6.72
2022-08-25T04:43:50.286Z,6.88
2022-08-25T04:46:21.763Z,7.70
2022-08-25T04:48:50.197Z,7.55
2022-08-25T04:51:20.405Z,8.48
2022-08-25T04:53:48.503Z,7.45
2022-08-25T04:56:19.549Z,7.20
2022-08-25T04:58:47.895Z,8.27
2022-08-25T05:01:18.416Z,7.07
2022-08-25T05:03:48.208Z,7.07
2022-08-25T05:06:16.562Z,7.40
2022-08-25T05:08:45.914Z,8.18
2022-08-25T05:11:17.363Z,8.18
2022-08-25T05:13:51.291Z,7.88
2022-08-25T05:16:20.879Z,8.13
2022-08-25T05:18:49.364Z,8.35
2022-08-25T05:21:20.479Z,7.88
2022-08-25T05:23:49.233Z,9.00
2022-08-25T05:26:20.380Z,7.90
2022-08-25T05:28:51.430Z,8.88
2022-08-25T05:31:20.948Z,7.88
2022-08-25T05:33:49.262Z,9.40
2022-08-25T05:36:18.242Z,8.32
2022-08-25T05:38:46.391Z,7.15
2022-08-25T05:41:16.498Z,7.38
2022-08-25T05:43:46.227Z,7.72
2022-08-25T05:46:16.712Z,7.13
2022-08-25T05:48:44.841Z,6.70
2022-08-25T05:51:15.032Z,7.30
2022-08-25T05:53:44.871Z,7.32
2022-08-25T05:56:14.270Z,7.38
2022-08-25T05:58:43.240Z,7.97
2022-08-25T06:01:37.083Z,7.80
2022-08-25T06:04:06.723Z,6.47
2022-08-25T06:06:34.645Z,6.68
2022-08-25T06:09:05.297Z,7.22
2022-08-25T06:11:33.496Z,6.60
2022-08-25T06:14:01.436Z,6.85
2022-08-25T06:16:29.493Z,6.82
2022-08-25T06:18:57.646Z,6.80
2022-08-25T06:21:27.559Z,7.53
2022-08-25T06:23:55.868Z,6.78
2022-08-25T06:26:24.566Z,7.25
2022-08-25T06:28:53.961Z,7.18
2022-08-25T06:31:23.132Z,7.35
2022-08-25T06:33:52.436Z,6.18
2022-08-25T06:36:21.507Z,6.95
2022-08-25T06:38:50.805Z,7.28
2022-08-25T06:41:18.983Z,6.25
2022-08-25T06:43:50.767Z,6.07
2022-08-25T06:46:36.604Z,6.55
2022-08-25T06:49:05.566Z,6.60
2022-08-25T06:51:36.137Z,6.40
2022-08-25T06:54:06.936Z,8.27
2022-08-25T06:56:35.869Z,6.47
2022-08-25T06:59:05.304Z,7.20
2022-08-25T07:01:34.098Z,6.65
2022-08-25T07:04:07.644Z,7.85
2022-08-25T07:06:38.721Z,7.60
2022-08-25T07:09:10.889Z,7.28
2022-08-25T07:11:39.382Z,7.05
2022-08-25T07:14:09.538Z,6.85
2022-08-25T07:16:38.728Z,7.07
2022-08-25T07:19:10.548Z,8.05
2022-08-25T07:21:45.760Z,6.97
2022-08-25T07:24:16.461Z,7.10
2022-08-25T07:26:46.730Z,7.80
2022-08-25T07:29:17.512Z,8.07
2022-08-25T07:31:46.456Z,7.22
2022-08-25T07:34:32.566Z,9.68
2022-08-25T07:37:00.595Z,9.82
2022-08-25T07:39:30.031Z,9.98
2022-08-25T07:41:59.362Z,10.63
2022-08-25T07:44:28.711Z,11.57
2022-08-25T07:46:56.883Z,11.73
2022-08-25T07:49:27.102Z,10.00
2022-08-25T07:52:06.630Z,12.23
2022-08-25T07:54:38.025Z,11.90
2022-08-25T07:57:08.347Z,11.45
2022-08-25T07:59:39.666Z,12.43
2022-08-25T08:02:18.081Z,11.02
2022-08-25T08:04:48.853Z,11.05
2022-08-25T08:07:18.947Z,10.80
2022-08-25T08:09:56.222Z,11.25
2022-08-25T08:12:34.793Z,10.15
2022-08-25T08:15:04.940Z,10.02
2022-08-25T08:17:39.566Z,9.35
2022-08-25T08:20:09.632Z,8.75
2022-08-25T08:22:41.002Z,8.57
2022-08-25T08:25:18.658Z,9.60
2022-08-25T08:27:50.818Z,8.35
2022-08-25T08:30:23.716Z,7.30
2022-08-25T08:33:09.047Z,7.90
2022-08-25T08:35:37.695Z,7.22
2022-08-25T08:38:14.491Z,8.15
2022-08-25T08:41:23.013Z,9.07
2022-08-25T08:43:56.516Z,7.95
2022-08-25T08:46:38.971Z,7.88
2022-08-25T08:49:22.938Z,8.85
2022-08-25T08:52:00.033Z,7.82
2022-08-25T08:54:32.699Z,7.05
2022-08-25T08:57:12.728Z,8.15
2022-08-25T08:59:48.684Z,8.15
2022-08-25T09:02:39.384Z,8.27
2022-08-25T09:05:20.010Z,7.47
2022-08-25T09:07:54.911Z,8.60
2022-08-25T09:10:25.709Z,8.20
2022-08-25T09:13:08.731Z,9.98
2022-08-25T09:16:06.968Z,8.98
2022-08-25T09:18:51.452Z,11.55
2022-08-25T09:21:32.202Z,8.52
2022-08-25T09:24:18.599Z,8.50
2022-08-25T09:26:55.216Z,8.80
2022-08-25T09:29:31.917Z,9.18
2022-08-25T09:32:04.074Z,8.95
2022-08-25T09:34:35.049Z,8.48
2022-08-25T09:37:03.143Z,8.80
2022-08-25T09:39:31.238Z,9.30
2022-08-25T09:42:01.144Z,8.85
2022-08-25T09:44:33.634Z,8.73
2022-08-25T09:47:08.430Z,8.00
2022-08-25T09:49:40.333Z,8.27
2022-08-25T09:52:25.940Z,9.02
2022-08-25T09:54:55.684Z,7.88
2022-08-25T09:57:35.770Z,7.78
2022-08-25T10:00:18.553Z,7.45
2022-08-25T10:03:05.757Z,8.27
2022-08-25T10:05:36.626Z,8.07
2022-08-25T10:08:14.582Z,7.53
2022-08-25T10:10:48.239Z,7.75
2022-08-25T10:13:23.418Z,7.40
2022-08-25T10:16:20.619Z,7.18
2022-08-25T10:19:06.871Z,7.85
2022-08-25T10:21:36.763Z,7.90
2022-08-25T10:24:06.183Z,8.32
2022-08-25T10:26:49.141Z,7.57
2022-08-25T10:29:34.910Z,8.20
2022-08-25T10:32:12.254Z,7.53
2022-08-25T10:34:51.836Z,7.05
2022-08-25T10:37:32.917Z,7.05
2022-08-25T10:40:14.214Z,8.07
2022-08-25T10:43:02.441Z,7.25
2022-08-25T10:45:46.332Z,7.65
2022-08-25T10:48:38.085Z,7.45
2022-08-25T10:51:18.849Z,7.25
2022-08-25T10:53:58.280Z,6.82
2022-08-25T10:56:30.323Z,6.97
2022-08-25T10:59:31.663Z,7.18
2022-08-25T11:02:38.443Z,7.30
2022-08-25T11:05:16.395Z,7.25
2022-08-25T11:07:56.211Z,6.43
2022-08-25T11:10:27.927Z,7.55
2022-08-25T11:12:59.483Z,6.75
2022-08-25T11:15:33.219Z,6.63
2022-08-25T11:18:06.584Z,6.43
2022-08-25T11:20:51.655Z,6.22
2022-08-25T11:23:25.424Z,5.63
2022-08-25T11:25:55.457Z,5.30
2022-08-25T11:28:32.246Z,6.53
2022-08-25T11:31:03.056Z,6.88
2022-08-25T11:33:33.850Z,6.07
2022-08-25T11:36:11.690Z,6.10
2022-08-25T11:38:49.612Z,6.50
2022-08-25T11:41:28.337Z,5.20
2022-08-25T11:44:11.861Z,5.40
2022-08-25T11:46:51.402Z,5.63
2022-08-25T11:49:40.782Z,6.85
2022-08-25T11:52:43.509Z,6.60
2022-08-25T11:55:14.396Z,6.25
2022-08-25T11:57:51.549Z,5.93
2022-08-25T12:00:43.192Z,6.90
2022-08-25T12:03:44.400Z,6.40
2022-08-25T12:06:18.371Z,7.95
2022-08-25T12:09:21.621Z,6.57
2022-08-25T12:11:58.344Z,7.57
2022-08-25T12:14:48.019Z,7.63
2022-08-25T12:17:39.616Z,6.25
2022-08-25T12:20:08.973Z,6.60
2022-08-25T12:22:54.211Z,6.13
2022-08-25T12:25:39.190Z,6.15
2022-08-25T12:28:28.932Z,6.15
2022-08-25T12:31:09.753Z,5.72
2022-08-25T12:33:53.247Z,6.68
2022-08-25T12:36:33.287Z,6.53
2022-08-25T12:39:19.859Z,5.95
2022-08-25T12:41:59.682Z,6.30
2022-08-25T12:44:41.805Z,5.53
2022-08-25T12:47:31.911Z,5.43
2022-08-25T12:50:44.772Z,5.30
2022-08-25T12:53:18.957Z,6.25
2022-08-25T12:55:51.087Z,5.47
2022-08-25T12:58:20.951Z,5.90
2022-08-25T13:01:17.570Z,5.30
2022-08-25T13:04:26.899Z,5.00
2022-08-25T13:07:06.207Z,5.50
2022-08-25T13:10:19.007Z,5.45
2022-08-25T13:12:51.434Z,5.00
2022-08-25T13:15:34.341Z,5.15
2022-08-25T13:18:17.294Z,6.07
2022-08-25T13:20:47.822Z,4.53
2022-08-25T13:23:21.128Z,4.95
2022-08-25T13:25:51.956Z,5.40
2022-08-25T13:28:28.761Z,4.88
2022-08-25T13:31:01.403Z,5.00
2022-08-25T13:33:30.272Z,5.97
2022-08-25T13:36:17.182Z,5.75
2022-08-25T13:38:47.461Z,5.32
2022-08-25T13:41:29.214Z,5.53
2022-08-25T13:44:01.060Z,5.65
2022-08-25T13:46:31.985Z,5.88
2022-08-25T13:49:06.310Z,5.03
2022-08-25T13:51:34.482Z,5.53
2022-08-25T13:54:05.921Z,6.10
2022-08-25T13:56:40.619Z,4.82
2022-08-25T13:59:24.112Z,5.28
2022-08-25T14:01:55.515Z,4.40
2022-08-25T14:04:32.565Z,5.63
2022-08-25T14:07:19.438Z,4.50
2022-08-25T14:09:52.403Z,5.32
2022-08-25T14:12:33.964Z,5.40
2022-08-25T14:15:06.633Z,5.55
2022-08-25T14:17:39.534Z,5.53
2022-08-25T14:20:19.229Z,5.30
2022-08-25T14:22:47.587Z,5.60
2022-08-25T14:25:16.223Z,5.35
2022-08-25T14:28:06.974Z,4.82
2022-08-25T14:30:36.526Z,5.45
2022-08-25T14:33:07.102Z,5.57
2022-08-25T14:35:35.332Z,4.95
2022-08-25T14:38:08.461Z,5.82
2022-08-25T14:40:37.419Z,4.75
2022-08-25T14:43:05.698Z,5.20
2022-08-25T14:45:40.541Z,5.05
2022-08-25T14:48:14.269Z,5.35
2022-08-25T14:50:42.646Z,4.85
2022-08-25T14:53:12.348Z,5.22
2022-08-25T14:55:40.477Z,4.70
2022-08-25T14:58:08.880Z,4.97
2022-08-25T15:00:41.304Z,5.68
2022-08-25T15:03:13.346Z,4.95
2022-08-25T15:05:41.872Z,4.32
2022-08-25T15:08:33.076Z,4.95
2022-08-25T15:11:01.502Z,4.60
2022-08-25T15:13:36.857Z,5.53
2022-08-25T15:16:05.903Z,4.82
2022-08-25T15:18:35.797Z,5.38
2022-08-25T15:21:04.348Z,4.72
2022-08-25T15:23:32.655Z,5.05
2022-08-25T15:26:03.515Z,5.03
2022-08-25T15:28:33.384Z,4.78
2022-08-25T15:31:01.537Z,4.20
2022-08-25T15:33:30.115Z,4.90
2022-08-25T15:35:59.563Z,4.38
2022-08-25T15:38:27.572Z,4.57
2022-08-25T15:40:56.012Z,4.50
2022-08-25T15:43:26.290Z,4.88
2022-08-25T15:45:54.236Z,4.88
2022-08-25T15:48:22.360Z,5.18
2022-08-25T15:50:55.825Z,4.45
2022-08-25T15:53:26.254Z,5.57
2022-08-25T15:55:54.469Z,5.00
2022-08-25T15:58:22.555Z,4.90
2022-08-25T16:00:56.365Z,4.63
2022-08-25T16:03:25.261Z,5.22
2022-08-25T16:05:53.418Z,4.30
2022-08-25T16:08:21.461Z,4.45
2022-08-25T16:10:50.806Z,4.53
2022-08-25T16:13:19.608Z,4.47
2022-08-25T16:15:54.241Z,4.22
2022-08-25T16:18:22.638Z,4.65
2022-08-25T16:20:51.101Z,5.43
2022-08-25T16:23:20.780Z,5.32
2022-08-25T16:25:51.855Z,5.20
2022-08-25T16:28:20.589Z,4.10
2022-08-25T16:30:53.209Z,5.07
2022-08-25T16:33:21.681Z,4.75
2022-08-25T16:35:49.616Z,4.82
2022-08-25T16:38:17.885Z,4.70
2022-08-25T16:40:46.858Z,3.88
2022-08-25T16:43:17.708Z,5.47
2022-08-25T16:45:46.287Z,4.70
2022-08-25T16:48:14.582Z,4.75
2022-08-25T16:50:42.661Z,4.72
2022-08-25T16:53:28.146Z,4.38
2022-08-25T16:56:02.305Z,5.22
2022-08-25T16:58:33.235Z,4.90
2022-08-25T17:01:06.312Z,4.38
2022-08-25T17:03:37.513Z,4.53
2022-08-25T17:06:07.137Z,4.57
2022-08-25T17:08:37.490Z,5.10
2022-08-25T17:11:09.468Z,4.63
2022-08-25T17:13:44.407Z,5.35
2022-08-25T17:16:14.634Z,5.00
2022-08-25T17:18:43.487Z,4.88
2022-08-25T17:21:24.396Z,4.80
2022-08-25T17:23:53.061Z,4.10
2022-08-25T17:26:27.902Z,5.07
2022-08-25T17:28:59.303Z,4.93
2022-08-25T17:31:28.373Z,5.03
2022-08-25T17:33:58.178Z,4.72
2022-08-25T17:36:26.979Z,5.00
2022-08-25T17:38:56.977Z,4.93
2022-08-25T17:41:25.346Z,4.97
2022-08-25T17:43:53.711Z,5.70
2022-08-25T17:46:23.081Z,4.70
2022-08-25T17:48:52.662Z,5.47
2022-08-25T17:51:21.359Z,4.70
2022-08-25T17:53:50.102Z,5.57
2022-08-25T17:56:20.806Z,4.60
2022-08-25T17:58:49.305Z,6.10
2022-08-25T18:01:19.899Z,5.55
2022-08-25T18:03:51.899Z,5.80
2022-08-25T18:06:21.034Z,5.30
2022-08-25T18:08:56.296Z,4.97
2022-08-25T18:11:26.882Z,5.95
2022-08-25T18:13:57.412Z,5.07
2022-08-25T18:16:26.588Z,5.40
2022-08-25T18:19:03.364Z,6.00
2022-08-25T18:21:36.304Z,4.90
2022-08-25T18:24:21.401Z,5.35
2022-08-25T18:27:05.842Z,5.80
2022-08-25T18:29:44.472Z,5.30
2022-08-25T18:33:05.289Z,5.95
2022-08-25T18:35:34.996Z,5.60
2022-08-25T18:38:21.250Z,6.60
2022-08-25T18:40:49.245Z,5.70
2022-08-25T18:43:17.695Z,6.10
2022-08-25T18:45:48.538Z,6.68
2022-08-25T18:48:18.240Z,5.63
2022-08-25T18:50:50.594Z,6.07
2022-08-25T18:53:30.349Z,6.18
2022-08-25T18:56:06.036Z,5.80
2022-08-25T18:58:34.425Z,7.70
2022-08-25T19:01:04.804Z,5.70
2022-08-25T19:03:33.262Z,6.40
2022-08-25T19:06:02.629Z,6.40
2022-08-25T19:08:30.796Z,6.57
2022-08-25T19:10:59.164Z,6.13
2022-08-25T19:13:27.198Z,6.38
2022-08-25T19:15:55.441Z,6.30
2022-08-25T19:18:25.889Z,6.18
2022-08-25T19:20:58.516Z,6.90
2022-08-25T19:23:28.461Z,5.40
2022-08-25T19:25:56.700Z,6.25
2022-08-25T19:28:27.123Z,6.03
2022-08-25T19:30:55.613Z,6.60
2022-08-25T19:33:42.129Z,6.10
2022-08-25T19:36:11.733Z,6.25
2022-08-25T19:38:41.984Z,6.60
2022-08-25T19:41:14.548Z,6.03
2022-08-25T19:43:50.615Z,6.07
2022-08-25T19:46:25.204Z,6.43
2022-08-25T19:48:53.378Z,6.35
2022-08-25T19:51:21.900Z,6.47
2022-08-25T19:53:55.769Z,6.93
2022-08-25T19:56:25.993Z,6.95
2022-08-25T19:58:53.967Z,6.40
2022-08-25T20:01:23.247Z,6.47
2022-08-25T20:03:52.390Z,6.28
2022-08-25T20:06:20.814Z,6.63
2022-08-25T20:08:48.754Z,6.63
2022-08-25T20:11:29.244Z,6.20
2022-08-25T20:14:00.436Z,5.68
2022-08-25T20:16:31.623Z,6.25
2022-08-25T20:19:00.285Z,6.38
2022-08-25T20:21:30.834Z,6.35
2022-08-25T20:24:16.485Z,6.28
2022-08-25T20:26:45.945Z,7.03
2022-08-25T20:29:14.453Z,6.57
2022-08-25T20:31:43.715Z,6.57
2022-08-25T20:34:11.677Z,6.32
2022-08-25T20:36:41.674Z,6.43
2022-08-25T20:39:20.242Z,6.15
2022-08-25T20:41:49.865Z,6.55
2022-08-25T20:44:19.294Z,6.88
2022-08-25T20:46:51.935Z,6.78
2022-08-25T20:49:25.781Z,7.05
2022-08-25T20:51:54.091Z,6.88
2022-08-25T20:54:25.015Z,6.85
2022-08-25T20:56:56.001Z,7.38
2022-08-25T20:59:25.217Z,6.82
2022-08-25T21:01:54.328Z,6.68
2022-08-25T21:04:24.729Z,6.38
2022-08-25T21:06:53.269Z,8.52
2022-08-25T21:09:24.012Z,6.90
2022-08-25T21:11:56.465Z,6.20
2022-08-25T21:14:26.341Z,6.20
2022-08-25T21:16:55.324Z,7.45
2022-08-25T21:19:33.963Z,7.70
2022-08-25T21:22:02.121Z,6.35
2022-08-25T21:24:30.219Z,6.80
2022-08-25T21:27:00.897Z,6.63
2022-08-25T21:29:32.007Z,6.93
2022-08-25T21:32:00.511Z,6.88
2022-08-25T21:34:29.517Z,6.88
2022-08-25T21:36:58.375Z,8.73
2022-08-25T21:39:32.047Z,7.05
2022-08-25T21:42:02.657Z,6.60
2022-08-25T21:44:31.434Z,6.68
2022-08-25T21:46:59.535Z,7.40
2022-08-25T21:49:27.504Z,6.93
2022-08-25T21:52:00.951Z,6.70
2022-08-25T21:54:30.186Z,7.05
2022-08-25T21:57:00.179Z,7.05
2022-08-25T21:59:35.375Z,7.88
2022-08-25T22:02:06.388Z,7.65
2022-08-25T22:04:34.873Z,6.25
2022-08-25T22:07:02.934Z,6.55
2022-08-25T22:09:31.399Z,7.90
2022-08-25T22:11:59.408Z,6.50
2022-08-25T22:14:29.143Z,7.25
2022-08-25T22:16:57.130Z,7.80
2022-08-25T22:19:25.518Z,7.45
2022-08-25T22:21:54.668Z,7.15
2022-08-25T22:24:23.152Z,7.32
2022-08-25T22:26:57.107Z,6.85
2022-08-25T22:29:26.514Z,7.97
2022-08-25T22:31:59.344Z,7.85
2022-08-25T22:34:30.517Z,7.68
2022-08-25T22:37:00.708Z,7.25
2022-08-25T22:39:28.915Z,6.90
2022-08-25T22:41:57.324Z,7.63
2022-08-25T22:44:25.737Z,6.85
2022-08-25T22:46:55.700Z,8.13
2022-08-25T22:49:24.172Z,7.88
2022-08-25T22:51:53.742Z,8.10
2022-08-25T22:54:25.310Z,7.20
2022-08-25T22:56:54.386Z,7.72
2022-08-25T22:59:22.693Z,7.90
2022-08-25T23:01:52.534Z,9.75
2022-08-25T23:04:25.169Z,8.02
2022-08-25T23:06:53.401Z,7.65
2022-08-25T23:09:22.017Z,8.15
2022-08-25T23:11:51.328Z,8.15
2022-08-25T23:14:20.043Z,7.88
2022-08-25T23:16:50.531Z,8.40
2022-08-25T23:19:19.179Z,9.55
2022-08-25T23:22:06.666Z,7.82
2022-08-25T23:24:35.264Z,7.18
2022-08-25T23:27:04.740Z,7.35
2022-08-25T23:29:34.339Z,7.75
2022-08-25T23:32:02.811Z,7.82
2022-08-25T23:34:30.924Z,7.75
2022-08-25T23:37:04.062Z,8.52
2022-08-25T23:39:31.842Z,7.60
2022-08-25T23:41:59.910Z,8.80
2022-08-25T23:44:28.141Z,7.88
2022-08-25T23:46:56.640Z,8.38
2022-08-25T23:49:26.151Z,8.63
2022-08-25T23:51:56.177Z,8.32
2022-08-25T23:54:31.104Z,8.48
2022-08-25T23:56:59.890Z,8.90
2022-08-25T23:59:29.695Z,7.85
